Time;durP1;ratioP1;P1;durP2;ratioP2;P2;SDS_P1;SDS_P2;PMS_P1;PMS_P2;Temp;Humidity;BMP_temperature;BMP_pressure;BME280_temperature;BME280_humidity;BME280_pressure;Samples;Min_cycle;Max_cycle;Signal;HPM_P1;HPM_P2
2022/01/10 00:00:19;;;;;;;10.93;7.97;;;2.50;89.60;;;0.96;90.57;97307.47;5073503;28;20461;-69
2022/01/10 00:02:50;;;;;;;11.53;8.10;;;2.50;89.50;;;0.99;90.73;97311.63;5055277;28;20435;-68
2022/01/10 00:05:17;;;;;;;12.03;6.93;;;2.50;89.50;;;0.89;90.82;97314.47;5072206;28;20449;-69
2022/01/10 00:07:44;;;;;;;8.33;6.80;;;2.50;89.00;;;0.93;90.36;97312.31;5055540;28;20528;-68
2022/01/10 00:10:12;;;;;;;12.97;8.43;;;2.50;88.80;;;0.85;91.24;97315.81;5073397;28;20520;-70
2022/01/10 00:12:41;;;;;;;8.97;7.40;;;2.40;89.80;;;0.87;91.13;97320.97;5073923;28;20438;-70
2022/01/10 00:15:10;;;;;;;12.40;8.30;;;2.40;90.20;;;0.89;91.16;97322.44;5071759;28;20464;-70
2022/01/10 00:17:38;;;;;;;12.60;9.40;;;2.40;90.20;;;0.78;91.31;97321.00;5071827;28;20531;-71
2022/01/10 00:20:08;;;;;;;9.67;8.10;;;2.40;90.00;;;0.82;91.19;97324.97;5073243;28;20460;-70
2022/01/10 00:22:36;;;;;;;15.23;8.50;;;2.40;90.20;;;0.91;91.12;97330.28;5071903;28;20848;-70
2022/01/10 00:25:04;;;;;;;14.70;8.67;;;2.40;90.50;;;0.82;91.20;97332.13;5073201;28;20470;-70
2022/01/10 00:27:31;;;;;;;9.13;8.13;;;2.40;90.20;;;0.90;91.66;97331.28;5073254;28;20465;-70
2022/01/10 00:29:59;;;;;;;9.00;7.70;;;2.40;90.70;;;0.93;90.47;97331.78;5073450;28;20439;-70
2022/01/10 00:32:27;;;;;;;17.60;8.70;;;2.50;89.60;;;0.90;91.06;97336.59;5072933;28;20443;-70
2022/01/10 00:34:54;;;;;;;10.33;9.30;;;2.50;89.70;;;0.95;91.05;97331.56;5055308;28;20848;-69
2022/01/10 00:37:21;;;;;;;8.73;7.20;;;2.40;90.30;;;1.03;90.64;97338.69;5073583;28;20597;-70
2022/01/10 00:39:49;;;;;;;10.97;8.03;;;2.40;89.90;;;0.83;90.97;97337.28;5072993;28;20969;-70
2022/01/10 00:42:17;;;;;;;11.87;8.03;;;2.40;89.80;;;0.83;91.39;97334.63;5055051;28;20510;-69
2022/01/10 00:44:50;;;;;;;13.73;8.40;;;2.40;90.70;;;0.88;91.62;97342.06;5071993;28;20456;-70
2022/01/10 00:47:19;;;;;;;13.10;8.13;;;2.40;90.30;;;0.89;91.18;97345.56;5055142;28;20443;-69
2022/01/10 00:49:47;;;;;;;9.10;8.00;;;2.40;90.10;;;1.03;90.60;97355.50;5055504;28;20452;-68
2022/01/10 00:52:14;;;;;;;11.90;8.80;;;2.50;90.10;;;0.96;91.25;97354.53;5076621;28;20503;-69
2022/01/10 00:54:43;;;;;;;12.50;8.70;;;2.50;90.20;;;0.98;91.31;97357.84;5077063;28;20455;-70
2022/01/10 00:57:10;;;;;;;9.93;8.27;;;2.40;90.50;;;0.80;91.24;97360.72;5076544;28;20465;-69
2022/01/10 00:59:37;;;;;;;11.67;8.07;;;2.40;90.30;;;0.75;91.67;97355.06;5076422;28;20947;-69
2022/01/10 01:02:04;;;;;;;14.00;8.83;;;2.30;90.70;;;0.74;92.02;97366.69;5076404;28;20686;-69
2022/01/10 01:04:33;;;;;;;13.97;9.10;;;2.30;90.60;;;0.69;92.35;97369.88;5076730;28;20548;-69
2022/01/10 01:06:59;;;;;;;14.97;9.57;;;2.20;91.10;;;0.73;92.06;97363.22;5076082;28;20447;-69
2022/01/10 01:09:29;;;;;;;10.00;7.77;;;2.30;90.90;;;0.79;92.02;97375.84;5076296;28;20961;-69
2022/01/10 01:14:53;;;;;;;14.07;8.40;;;2.30;91.50;;;0.94;91.48;97380.47;5076225;28;20450;-68
2022/01/10 01:17:35;;;;;;;11.40;8.97;;;2.30;91.10;;;1.01;90.26;97376.13;5058694;28;20441;-68
2022/01/10 01:20:20;;;;;;;13.57;9.00;;;2.40;90.30;;;0.98;90.52;97379.97;5076249;28;20991;-68
2022/01/10 01:25:32;;;;;;;11.90;8.37;;;2.40;90.30;;;0.83;91.29;97387.81;5075967;28;20455;-68
2022/01/10 01:27:59;;;;;;;11.10;8.43;;;2.40;90.30;;;0.82;91.44;97386.13;5076211;28;20456;-69
2022/01/10 01:30:26;;;;;;;14.23;9.20;;;2.30;90.40;;;0.80;91.84;97388.13;5075919;28;20437;-69
2022/01/10 01:32:53;;;;;;;10.47;8.93;;;2.30;90.90;;;0.74;91.86;97388.81;5076399;28;20980;-69
2022/01/10 01:35:24;;;;;;;12.17;9.07;;;2.30;90.60;;;0.56;92.68;97389.84;5075809;28;20897;-68
2022/01/10 01:37:52;;;;;;;11.80;8.67;;;2.10;91.20;;;0.52;92.81;97393.81;5075872;28;20481;-69
2022/01/10 01:40:21;;;;;;;10.17;9.13;;;2.10;91.60;;;0.50;93.65;97395.81;5076138;28;20457;-69
2022/01/10 01:42:48;;;;;;;11.77;9.50;;;2.00;92.10;;;0.51;93.26;97399.31;5075843;28;20751;-69
2022/01/10 01:45:16;;;;;;;12.90;10.10;;;2.00;92.50;;;0.42;93.83;97398.47;5075691;28;20533;-71
2022/01/10 01:47:44;;;;;;;12.77;9.20;;;1.90;92.60;;;0.28;94.38;97406.09;5075604;28;20437;-70
2022/01/10 01:50:12;;;;;;;12.30;8.50;;;1.80;92.80;;;0.32;93.56;97389.81;5076194;28;20520;-70
2022/01/10 01:52:40;;;;;;;14.70;9.97;;;1.80;93.60;;;0.24;94.73;97410.09;5075573;28;20542;-69
2022/01/10 01:55:09;;;;;;;10.50;9.20;;;1.80;93.80;;;0.13;95.51;97405.91;5074950;28;20524;-68
2022/01/10 01:57:37;;;;;;;14.40;9.50;;;1.70;94.50;;;0.14;95.48;97409.41;5057170;28;20932;-69
2022/01/10 02:00:07;;;;;;;11.47;9.77;;;1.70;95.10;;;0.26;95.07;97424.03;5058131;28;20540;-69
2022/01/10 02:02:33;;;;;;;14.90;10.13;;;1.80;95.30;;;0.32;95.47;97419.06;5074158;28;20934;-71
2022/01/10 02:05:00;;;;;;;14.63;10.70;;;1.80;95.30;;;0.37;94.63;97417.56;5057504;28;20951;-70
2022/01/10 02:07:27;;;;;;;11.67;9.57;;;1.90;94.60;;;0.41;95.01;97416.22;5073836;28;20760;-69
2022/01/10 02:09:56;;;;;;;11.03;8.70;;;1.90;94.40;;;0.31;94.41;97420.91;5075437;28;20520;-69
2022/01/10 02:12:23;;;;;;;12.07;9.90;;;1.90;93.50;;;0.33;94.12;97423.38;5057123;28;20521;-69
2022/01/10 02:14:50;;;;;;;14.30;9.60;;;1.90;93.40;;;0.12;95.09;97433.47;5057472;28;20448;-69
2022/01/10 02:17:22;;;;;;;14.20;9.73;;;1.70;93.20;;;0.11;95.64;97452.25;5074761;28;20983;-69
2022/01/10 02:19:57;;;;;;;15.03;9.70;;;1.60;94.40;;;0.18;95.85;97453.25;5075390;28;20556;-69
2022/01/10 02:22:24;;;;;;;12.23;10.10;;;1.70;96.10;;;0.10;96.29;97462.03;5074844;28;20480;-69
2022/01/10 02:24:51;;;;;;;11.83;10.57;;;1.60;96.20;;;0.10;96.84;97461.22;5074659;28;20437;-69
2022/01/10 02:27:18;;;;;;;13.63;10.27;;;1.60;97.60;;;0.19;96.55;97464.72;5074679;28;20425;-69
2022/01/10 02:29:45;;;;;;;11.50;9.17;;;1.70;98.80;;;0.24;96.62;97460.59;5074054;28;20488;-69
2022/01/10 02:32:12;;;;;;;12.70;9.80;;;1.80;98.40;;;0.22;95.93;97464.38;5074715;28;20449;-69
2022/01/10 02:34:39;;;;;;;13.20;9.10;;;1.80;97.10;;;0.39;95.78;97467.91;5056947;28;20446;-70
2022/01/10 02:37:07;;;;;;;18.83;10.40;;;1.80;97.30;;;0.38;95.51;97466.22;5056795;28;20503;-70
2022/01/10 02:39:36;;;;;;;14.20;9.03;;;1.90;95.60;;;0.40;95.58;97474.91;5074429;28;20472;-71
2022/01/10 02:42:04;;;;;;;13.70;9.80;;;1.90;95.00;;;0.36;95.23;97477.03;5074625;28;20911;-70
2022/01/10 02:44:31;;;;;;;15.63;11.10;;;1.90;94.70;;;0.37;95.41;97492.00;5056262;28;20452;-70
2022/01/10 02:46:58;;;;;;;11.57;9.47;;;1.90;94.70;;;0.50;95.41;97488.84;5072714;28;20445;-69
2022/01/10 02:49:28;;;;;;;17.87;10.60;;;2.00;95.30;;;0.67;94.84;97496.84;5056296;28;20437;-70
2022/01/10 02:51:57;;;;;;;11.30;10.10;;;2.10;95.40;;;0.60;94.36;97485.22;5074720;28;20452;-70
2022/01/10 02:54:28;;;;;;;13.03;10.30;;;2.20;93.20;;;0.82;93.95;97502.34;5074539;28;20520;-70
2022/01/10 02:56:57;;;;;;;11.40;9.20;;;2.20;93.50;;;0.98;92.68;97505.00;5074601;28;20535;-69
2022/01/10 02:59:26;;;;;;;11.47;9.93;;;2.50;91.80;;;0.92;92.45;97513.66;5055924;28;20822;-69
2022/01/10 03:01:54;;;;;;;11.67;9.43;;;2.40;91.60;;;0.84;92.62;97521.63;5056336;28;20453;-69
2022/01/10 03:04:21;;;;;;;15.33;10.13;;;2.40;91.10;;;0.75;92.37;97499.50;5074154;28;20440;-70
2022/01/10 03:06:49;;;;;;;13.07;8.97;;;2.40;91.50;;;0.81;92.84;97529.94;5074242;28;20473;-71
2022/01/10 03:09:16;;;;;;;9.93;8.90;;;2.40;91.50;;;0.78;93.40;97522.31;5058760;28;20445;-69
2022/01/10 03:11:44;;;;;;;14.00;9.27;;;2.40;91.70;;;0.93;91.94;97525.13;5059444;28;20464;-68
2022/01/10 03:14:13;;;;;;;11.53;9.47;;;2.40;91.50;;;0.91;92.32;97535.09;5058174;28;20477;-69
2022/01/10 03:16:40;;;;;;;12.17;9.10;;;2.50;90.60;;;0.87;92.98;97542.56;5072667;28;20777;-70
2022/01/10 03:19:07;;;;;;;12.93;10.37;;;2.40;91.70;;;0.88;92.69;97548.72;5074284;28;20521;-70
2022/01/10 03:21:35;;;;;;;11.63;10.33;;;2.40;91.50;;;0.82;93.42;97552.88;5073941;28;20615;-70
2022/01/10 03:24:03;;;;;;;13.67;9.43;;;2.40;91.50;;;0.72;93.52;97557.50;5055921;28;20441;-71
2022/01/10 03:26:31;;;;;;;13.03;10.30;;;2.40;91.50;;;0.88;93.52;97559.38;5072350;28;20856;-71
2022/01/10 03:28:59;;;;;;;12.43;9.80;;;2.40;92.40;;;0.79;93.48;97556.69;5074121;28;20441;-70
2022/01/10 03:31:27;;;;;;;12.20;9.87;;;2.40;91.90;;;0.68;93.37;97562.31;5074340;28;20520;-70
2022/01/10 03:33:54;;;;;;;19.57;10.27;;;2.30;92.00;;;0.78;93.24;97564.84;5073793;28;20435;-69
2022/01/10 03:36:21;;;;;;;15.17;11.50;;;2.30;91.80;;;0.88;92.95;97564.69;5073849;28;20438;-70
2022/01/10 03:38:48;;;;;;;16.33;9.87;;;2.40;91.80;;;1.01;92.24;97570.34;5073745;28;20524;-71
2022/01/10 03:41:15;;;;;;;14.33;10.40;;;2.50;91.40;;;0.81;92.33;97573.31;5055615;28;20461;-71
2022/01/10 03:43:42;;;;;;;14.60;9.90;;;2.40;91.00;;;0.75;92.80;97568.66;5073605;28;20466;-71
2022/01/10 03:46:10;;;;;;;11.83;9.67;;;2.30;91.50;;;0.88;93.42;97575.34;5073950;28;20525;-71
2022/01/10 03:48:40;;;;;;;13.77;10.57;;;2.30;92.00;;;0.92;92.31;97571.34;5073562;28;20987;-70
2022/01/10 03:51:07;;;;;;;12.63;8.97;;;2.40;91.20;;;0.93;92.05;97586.31;5056239;28;20924;-69
2022/01/10 03:53:34;;;;;;;18.33;9.17;;;2.40;91.20;;;1.01;91.87;97581.00;5055538;28;20476;-70
2022/01/10 03:56:01;;;;;;;14.93;10.50;;;2.40;91.20;;;1.17;90.41;97582.00;5073328;28;20439;-70
2022/01/10 03:58:28;;;;;;;14.43;9.70;;;2.60;89.80;;;1.05;91.43;97586.81;5055659;28;20528;-69
2022/01/10 04:00:54;;;;;;;13.40;9.97;;;2.50;90.50;;;1.08;90.89;97587.31;5073833;28;20497;-70
2022/01/10 04:03:23;;;;;;;13.03;9.67;;;2.60;90.30;;;1.04;90.45;97596.63;5055136;28;20804;-70
2022/01/10 04:05:50;;;;;;;15.73;10.30;;;2.60;88.70;;;0.90;90.94;97599.94;5055105;28;20826;-71
2022/01/10 04:08:17;;;;;;;14.83;10.03;;;2.50;88.60;;;0.89;92.15;97609.72;5055488;28;20545;-71
2022/01/10 04:10:44;;;;;;;11.63;10.20;;;2.40;90.60;;;0.80;92.59;97622.19;5055574;28;20441;-71
2022/01/10 04:13:11;;;;;;;14.80;10.77;;;2.40;90.70;;;0.94;91.80;97617.22;5073372;28;20964;-71
2022/01/10 04:15:38;;;;;;;15.60;10.40;;;2.40;90.80;;;0.72;92.50;97630.16;5073418;28;20955;-71
2022/01/10 04:18:07;;;;;;;14.87;10.13;;;2.30;90.90;;;0.64;92.89;97632.78;5072244;28;20950;-72
2022/01/10 04:20:36;;;;;;;17.30;9.70;;;2.20;91.30;;;0.56;93.43;97636.25;5073952;28;20498;-71
2022/01/10 04:23:03;;;;;;;11.37;9.67;;;2.20;91.90;;;0.58;93.36;97638.75;5073464;28;20544;-71
2022/01/10 04:25:30;;;;;;;14.40;10.13;;;2.20;92.00;;;0.60;93.26;97640.25;5057053;28;20528;-70
2022/01/10 04:27:57;;;;;;;14.30;11.33;;;2.20;92.20;;;0.80;93.21;97645.31;5077349;28;20452;-70
2022/01/10 04:30:24;;;;;;;15.00;10.83;;;2.20;92.50;;;0.67;93.09;97651.06;5077400;28;20543;-70
2022/01/10 04:32:51;;;;;;;18.10;11.63;;;2.20;91.70;;;0.58;93.32;97654.72;5076978;28;20896;-70
2022/01/10 04:35:18;;;;;;;13.40;10.93;;;2.20;92.00;;;0.66;93.32;97657.38;5077149;28;20487;-71
2022/01/10 04:37:46;;;;;;;18.13;11.63;;;2.20;92.20;;;0.62;93.48;97658.72;5075936;28;20539;-71
2022/01/10 04:40:15;;;;;;;14.00;10.70;;;2.20;92.00;;;0.67;93.23;97661.72;5058680;28;20559;-70
2022/01/10 04:42:41;;;;;;;16.50;10.57;;;2.20;92.10;;;0.73;93.49;97658.41;5058834;28;20556;-71
2022/01/10 04:45:10;;;;;;;20.43;11.50;;;2.20;92.40;;;0.71;93.28;97668.38;5058918;28;20481;-71
2022/01/10 04:47:38;;;;;;;17.17;11.60;;;2.20;92.10;;;0.75;93.30;97666.22;5076992;28;20543;-71
2022/01/10 04:52:53;;;;;;;12.33;9.97;;;2.40;91.40;;;1.00;91.31;97685.78;5075586;28;20449;-72
2022/01/10 04:55:21;;;;;;;18.90;12.00;;;2.50;91.10;;;0.86;92.38;97684.53;5058389;28;20948;-69
2022/01/10 04:57:48;;;;;;;16.80;11.17;;;2.40;91.20;;;0.94;92.78;97689.91;5075049;28;21016;-70
2022/01/10 05:00:17;;;;;;;15.90;10.30;;;2.40;91.50;;;0.68;93.58;97687.31;5075267;28;20463;-70
2022/01/10 05:02:49;;;;;;;15.30;10.97;;;2.30;91.40;;;0.82;92.65;97694.66;5076382;28;20438;-71
2022/01/10 05:05:16;;;;;;;17.80;10.87;;;2.30;91.70;;;0.58;93.99;97691.94;5076809;28;20502;-71
2022/01/10 05:07:43;;;;;;;14.33;10.70;;;2.30;91.50;;;0.40;94.53;97696.31;5077113;28;20885;-71
2022/01/10 05:10:11;;;;;;;15.33;11.80;;;2.10;92.30;;;0.55;94.32;97696.59;5059199;28;20441;-71
2022/01/10 05:12:38;;;;;;;16.80;11.63;;;2.10;93.80;;;0.61;93.90;97691.59;5076425;28;20480;-71
2022/01/10 05:15:07;;;;;;;17.07;11.57;;;2.10;92.60;;;0.37;94.38;97693.16;5075796;28;20445;-71
2022/01/10 05:17:34;;;;;;;16.10;11.73;;;2.10;92.30;;;0.44;94.14;97704.84;5077012;28;20540;-70
2022/01/10 05:20:01;;;;;;;17.33;11.27;;;2.00;92.80;;;0.44;94.91;97707.50;5076025;28;20465;-70
2022/01/10 05:22:27;;;;;;;15.00;12.03;;;2.00;94.00;;;0.67;94.33;97706.91;5065907;28;20523;-70
2022/01/10 05:24:55;;;;;;;16.10;11.60;;;2.10;94.30;;;0.43;94.84;97711.13;5056007;28;20452;-71
2022/01/10 05:27:24;;;;;;;23.00;13.50;;;2.00;94.00;;;0.32;95.87;97714.06;5056178;28;20441;-70
2022/01/10 05:29:51;;;;;;;15.90;13.03;;;1.90;94.80;;;0.66;94.91;97719.41;5056292;28;20890;-70
2022/01/10 05:32:17;;;;;;;21.83;12.87;;;2.00;95.10;;;0.52;94.70;97717.31;5055042;28;20440;-70
2022/01/10 05:34:44;;;;;;;16.40;11.37;;;2.10;93.60;;;0.49;95.14;97721.13;5054183;28;20941;-71
2022/01/10 05:37:11;;;;;;;18.47;13.40;;;2.00;94.60;;;0.27;95.74;97726.00;5056120;28;20533;-70
2022/01/10 05:39:38;;;;;;;17.37;13.43;;;1.90;94.80;;;0.44;95.52;97726.09;5055827;28;20596;-73
2022/01/10 05:42:06;;;;;;;15.73;12.47;;;1.90;95.30;;;0.35;95.75;97735.84;5055647;28;20533;-73
2022/01/10 05:44:35;;;;;;;17.37;12.90;;;1.90;95.20;;;0.27;96.30;97728.66;5055278;28;20461;-73
2022/01/10 05:47:03;;;;;;;17.27;12.60;;;1.80;95.40;;;0.21;96.13;97745.22;5055572;28;20438;-72
2022/01/10 05:49:34;;;;;;;18.77;13.17;;;1.80;95.40;;;0.12;96.83;97746.97;5055946;28;20431;-72
2022/01/10 05:52:01;;;;;;;21.00;13.70;;;1.70;96.20;;;0.13;97.08;97746.00;5055724;28;20434;-72
2022/01/10 05:54:28;;;;;;;19.13;13.67;;;1.70;97.40;;;0.14;97.22;97755.63;5054087;28;20446;-72
2022/01/10 05:56:55;;;;;;;25.47;16.03;;;1.70;98.30;;;0.23;97.39;97764.53;5055570;28;20469;-73
2022/01/10 05:59:22;;;;;;;18.20;13.77;;;1.70;99.60;;;0.21;97.36;97765.66;5054383;28;20965;-72
2022/01/10 06:01:50;;;;;;;22.87;15.00;;;1.70;97.50;;;0.26;96.79;97769.53;5055863;28;20530;-74
2022/01/10 06:04:17;;;;;;;23.17;16.33;;;1.80;97.50;;;0.21;96.58;97766.47;5055932;28;20537;-73
2022/01/10 06:06:44;;;;;;;19.87;15.00;;;1.80;96.20;;;0.05;97.28;97782.31;5054315;28;20943;-73
2022/01/10 06:09:11;;;;;;;25.87;15.10;;;1.70;97.10;;;-0.08;98.24;97786.19;5055394;28;20521;-71
2022/01/10 06:11:40;;;;;;;22.03;14.70;;;1.60;98.90;;;-0.06;98.31;97778.06;5053798;28;20456;-74
2022/01/10 06:14:07;;;;;;;19.63;14.40;;;1.60;99.90;;;0.04;97.97;97776.16;5055073;28;20458;-73
2022/01/10 06:16:35;;;;;;;21.93;15.37;;;1.60;99.90;;;0.06;98.26;97797.25;5054969;28;20918;-72
2022/01/10 06:19:04;;;;;;;20.10;14.30;;;1.60;99.90;;;0.14;98.32;97797.31;5055060;28;20538;-75
2022/01/10 06:21:31;;;;;;;27.10;16.07;;;1.70;99.90;;;-0.01;98.14;97784.59;5060074;28;20519;-79
2022/01/10 06:24:01;;;;;;;22.67;15.07;;;1.70;99.90;;;-0.02;98.14;97798.00;5056860;28;20912;-77
2022/01/10 06:26:29;;;;;;;22.93;16.07;;;1.70;99.90;;;0.14;98.42;97813.28;5057784;28;20488;-78
2022/01/10 06:28:56;;;;;;;20.20;14.57;;;1.70;99.90;;;0.35;97.83;97804.97;5058056;28;20500;-78
2022/01/10 06:31:22;;;;;;;22.63;14.40;;;1.80;99.90;;;0.41;96.82;97824.78;5057734;28;20474;-78
2022/01/10 06:33:49;;;;;;;21.60;14.87;;;1.90;97.80;;;0.33;96.40;97832.66;5056847;28;20510;-76
2022/01/10 06:36:18;;;;;;;19.77;14.33;;;1.90;96.50;;;0.34;96.33;97837.00;5041525;28;20470;-76
2022/01/10 06:38:45;;;;;;;19.33;14.30;;;1.80;96.40;;;0.37;96.06;97832.22;5059946;28;20431;-75
2022/01/10 06:41:12;;;;;;;24.93;15.30;;;1.90;96.60;;;0.28;95.88;97831.31;5059055;28;20486;-74
2022/01/10 06:43:39;;;;;;;20.27;14.40;;;1.80;95.40;;;0.22;96.03;97847.88;5058430;28;20458;-76
2022/01/10 06:46:06;;;;;;;22.80;14.50;;;1.80;95.40;;;0.25;96.80;97852.91;5058652;28;20457;-75
2022/01/10 06:48:33;;;;;;;20.60;13.00;;;1.80;96.60;;;0.24;96.02;97861.84;5060203;28;20466;-74
2022/01/10 06:51:01;;;;;;;24.50;15.93;;;1.80;96.80;;;0.23;96.51;97865.50;5059471;28;20454;-77
2022/01/10 06:53:31;;;;;;;19.20;13.97;;;1.80;96.70;;;0.15;97.19;97868.09;5061037;28;20511;-76
2022/01/10 06:55:59;;;;;;;23.80;14.73;;;1.70;97.20;;;0.18;96.81;97878.41;5048920;28;20517;-76
2022/01/10 06:58:26;;;;;;;19.43;14.37;;;1.80;96.80;;;0.30;96.81;97879.00;5073466;28;20430;-76
2022/01/10 07:00:53;;;;;;;19.53;15.47;;;1.80;97.40;;;0.36;96.36;97891.69;5073791;28;20489;-76
2022/01/10 07:03:20;;;;;;;22.57;16.53;;;1.90;96.40;;;0.26;96.39;97896.25;5059720;28;20532;-76
2022/01/10 07:05:47;;;;;;;19.47;13.57;;;1.80;96.00;;;0.38;96.92;97895.03;5059325;28;20466;-76
2022/01/10 07:08:14;;;;;;;18.83;14.67;;;1.90;97.30;;;0.23;96.70;97892.09;5043155;28;20430;-75
2022/01/10 07:10:42;;;;;;;22.37;14.93;;;1.90;96.10;;;0.21;97.55;97904.66;5060444;28;20444;-75
2022/01/10 07:13:09;;;;;;;24.30;15.40;;;1.80;97.00;;;0.08;97.65;97910.38;5059921;28;20480;-76
2022/01/10 07:15:36;;;;;;;21.90;15.47;;;1.70;97.60;;;0.16;97.28;97922.88;5041329;28;20450;-74
2022/01/10 07:18:03;;;;;;;20.57;14.10;;;1.80;96.70;;;-0.13;97.37;97865.50;5058444;28;20954;-74
2022/01/10 07:20:33;;;;;;;24.43;15.90;;;1.80;98.30;;;0.32;97.10;97924.88;5058643;28;20525;-73
2022/01/10 07:23:00;;;;;;;24.10;15.17;;;1.80;98.70;;;0.67;96.35;97928.47;5039704;28;20442;-73
2022/01/10 07:25:27;;;;;;;20.47;14.40;;;2.00;98.80;;;0.84;94.93;97933.94;5058647;28;20462;-73
2022/01/10 07:27:55;;;;;;;21.10;14.20;;;2.20;95.70;;;0.26;95.27;97881.13;5057539;28;20530;-75
2022/01/10 07:30:22;;;;;;;24.83;15.93;;;2.20;94.70;;;0.61;95.88;97936.25;5057869;28;20966;-73
2022/01/10 07:32:49;;;;;;;19.03;14.17;;;2.20;95.30;;;0.49;95.41;97944.44;5057152;28;20510;-74
2022/01/10 07:35:16;;;;;;;22.70;13.57;;;2.10;94.00;;;0.40;96.07;97940.06;5039310;28;20965;-75
2022/01/10 07:37:43;;;;;;;20.83;14.53;;;2.00;94.90;;;0.41;96.15;97947.06;5056154;28;20907;-74
2022/01/10 07:40:12;;;;;;;23.03;13.80;;;1.90;95.60;;;0.28;96.79;97955.38;5038912;28;20920;-75
2022/01/10 07:42:39;;;;;;;19.67;14.03;;;1.80;95.90;;;0.30;96.19;97961.38;5055995;28;20564;-75
2022/01/10 07:45:09;;;;;;;16.73;12.87;;;1.80;96.40;;;0.13;96.28;97971.03;5057496;28;20468;-75
2022/01/10 07:47:37;;;;;;;22.57;14.10;;;1.70;95.90;;;0.17;97.08;97969.72;5056056;28;20534;-75
2022/01/10 07:50:06;;;;;;;20.23;13.70;;;1.70;96.60;;;0.24;96.92;97981.44;5056898;28;20511;-75
2022/01/10 07:52:33;;;;;;;20.17;14.53;;;1.80;97.10;;;0.40;95.98;97977.28;5055524;28;20464;-74
2022/01/10 07:55:01;;;;;;;19.97;14.60;;;1.90;96.90;;;0.36;96.00;97978.56;5057660;28;20450;-75
2022/01/10 07:57:28;;;;;;;20.30;15.17;;;1.90;96.20;;;-0.01;95.45;97933.34;5037244;28;20456;-76
2022/01/10 07:59:55;;;;;;;22.00;15.27;;;1.90;94.70;;;0.14;96.27;97988.63;5055798;28;20932;-76
2022/01/10 08:02:24;;;;;;;22.50;14.93;;;1.80;95.00;;;0.14;96.83;97989.47;5058960;28;20466;-74
2022/01/10 08:04:51;;;;;;;23.87;14.30;;;1.70;96.30;;;0.11;96.62;98000.41;5040330;28;20848;-75
2022/01/10 08:07:18;;;;;;;20.77;15.50;;;1.70;96.20;;;-0.01;97.34;98004.22;5057045;28;20474;-74
2022/01/10 08:09:45;;;;;;;25.17;14.87;;;1.60;96.60;;;-0.04;97.56;98013.34;5058269;28;20928;-74
2022/01/10 08:12:12;;;;;;;24.80;16.43;;;1.50;97.80;;;-0.05;97.79;98019.66;5039775;28;20469;-76
2022/01/10 08:14:39;;;;;;;20.00;15.40;;;1.50;99.30;;;-0.08;97.83;98019.09;5058236;28;20442;-74
2022/01/10 08:17:07;;;;;;;19.30;15.07;;;1.50;99.60;;;0.03;98.13;98026.03;5059110;28;20468;-74
2022/01/10 08:19:35;;;;;;;26.30;16.50;;;1.50;99.90;;;-0.12;97.91;98025.69;5040711;28;20438;-76
2022/01/10 08:22:03;;;;;;;26.20;16.83;;;1.50;99.60;;;-0.05;98.14;98032.94;5059712;28;20465;-75
2022/01/10 08:24:30;;;;;;;22.30;17.43;;;1.50;99.90;;;-0.01;97.67;98036.97;5057228;28;20438;-75
2022/01/10 08:26:58;;;;;;;23.90;15.30;;;1.50;99.90;;;0.03;97.20;98039.31;5057938;28;20529;-76
2022/01/10 08:29:26;;;;;;;24.13;16.70;;;1.50;99.60;;;-0.16;97.80;98025.97;5057940;28;20469;-75
2022/01/10 08:31:53;;;;;;;23.63;17.67;;;1.50;99.90;;;-0.04;97.46;98045.22;5040348;28;20446;-77
2022/01/10 08:34:21;;;;;;;37.13;17.87;;;1.50;99.10;;;-0.21;98.09;98043.34;5056555;28;20561;-76
2022/01/10 08:36:49;;;;;;;29.80;16.00;;;1.50;99.60;;;-0.08;98.27;98057.13;5056329;28;20434;-75
2022/01/10 08:39:18;;;;;;;23.07;18.03;;;1.40;99.90;;;-0.21;98.29;98043.34;5056088;28;20442;-74
2022/01/10 08:41:45;;;;;;;23.20;17.97;;;1.40;99.90;;;-0.04;98.43;98063.84;5038641;28;21015;-75
2022/01/10 08:44:14;;;;;;;30.27;19.40;;;1.50;99.90;;;-0.06;98.75;98067.59;5055458;28;20470;-75
2022/01/10 08:46:41;;;;;;;26.10;17.90;;;1.50;99.90;;;0.18;98.93;98075.03;5056924;28;20534;-73
2022/01/10 08:49:08;;;;;;;27.50;17.73;;;1.70;99.90;;;0.18;97.92;98067.06;5056708;28;20905;-74
2022/01/10 08:51:35;;;;;;;24.80;18.30;;;1.80;99.90;;;0.28;97.44;98086.47;5055749;28;20446;-74
2022/01/10 08:54:04;;;;;;;25.20;17.57;;;1.80;98.80;;;0.52;96.79;98092.22;5056832;28;20422;-74
2022/01/10 08:56:32;;;;;;;23.00;16.13;;;1.90;98.30;;;0.39;96.99;98092.59;5055347;28;20868;-75
2022/01/10 08:58:59;;;;;;;21.90;17.00;;;1.90;96.80;;;0.41;96.61;98101.25;5056739;28;20442;-75
2022/01/10 09:01:27;;;;;;;21.00;15.40;;;1.90;96.50;;;0.44;96.16;98108.06;5056610;28;20544;-74
2022/01/10 09:03:54;;;;;;;21.70;14.53;;;2.00;95.60;;;0.38;96.81;98104.16;5038846;28;20532;-75
2022/01/10 09:06:21;;;;;;;21.13;14.00;;;2.00;95.80;;;0.41;96.65;98107.38;5056693;28;20442;-75
2022/01/10 09:08:50;;;;;;;30.23;14.67;;;2.00;95.60;;;0.23;96.79;98099.38;5055295;28;20526;-74
2022/01/10 09:11:19;;;;;;;20.77;12.33;;;1.90;95.30;;;0.40;96.97;98116.34;5055980;28;20826;-74
2022/01/10 09:13:46;;;;;;;20.63;13.80;;;1.90;96.90;;;0.60;96.52;98123.38;5056341;28;20477;-74
2022/01/10 09:16:14;;;;;;;28.20;14.10;;;2.10;96.70;;;0.78;95.00;98113.59;5055334;28;20932;-75
2022/01/10 09:18:41;;;;;;;21.53;15.33;;;2.20;94.20;;;0.74;94.89;98122.88;5076601;28;20479;-74
2022/01/10 09:21:09;;;;;;;25.27;14.13;;;2.40;93.20;;;0.79;94.99;98133.06;5076354;28;20474;-75
2022/01/10 09:23:36;;;;;;;22.27;13.40;;;2.40;92.90;;;1.01;93.49;98131.78;5076207;28;20975;-76
2022/01/10 09:26:03;;;;;;;21.70;12.97;;;2.50;92.40;;;1.16;93.03;98136.59;5058197;28;20846;-75
2022/01/10 09:28:31;;;;;;;19.73;12.90;;;2.70;91.70;;;1.47;92.58;98145.00;5074846;28;20440;-75
2022/01/10 09:30:58;;;;;;;19.53;12.73;;;2.90;91.50;;;1.50;91.85;98151.84;5074576;28;20619;-75
2022/01/10 09:33:25;;;;;;;22.73;13.37;;;3.00;90.80;;;1.36;90.32;98148.75;5074868;28;20510;-76
2022/01/10 09:35:52;;;;;;;21.43;12.83;;;3.00;87.30;;;1.41;91.41;98159.75;5075793;28;20531;-75
2022/01/10 09:38:19;;;;;;;20.43;13.27;;;3.00;89.30;;;1.38;91.46;98157.41;5076417;28;20520;-75
2022/01/10 09:40:47;;;;;;;18.63;11.30;;;2.90;90.00;;;1.68;90.15;98163.31;5074824;28;20445;-75
2022/01/10 09:43:15;;;;;;;15.53;12.07;;;3.10;88.70;;;1.80;89.02;98165.72;5076087;28;20511;-74
2022/01/10 09:45:43;;;;;;;14.67;11.27;;;3.30;87.40;;;1.87;88.39;98166.75;5076582;28;20434;-73
2022/01/10 09:48:10;;;;;;;17.97;12.30;;;3.40;85.30;;;1.95;88.24;98168.66;5075073;28;20552;-73
2022/01/10 09:50:38;;;;;;;18.13;10.63;;;3.40;85.40;;;2.11;88.38;98174.06;5076737;28;20900;-74
2022/01/10 09:53:05;;;;;;;17.57;12.20;;;3.50;85.70;;;2.47;86.57;98183.78;5076462;28;21002;-73
2022/01/10 09:55:34;;;;;;;18.40;12.27;;;3.80;84.10;;;2.40;86.28;98188.91;5076783;28;20475;-75
2022/01/10 09:58:03;;;;;;;21.43;12.30;;;4.00;83.40;;;2.72;85.28;98186.56;5076162;28;20437;-73
2022/01/10 10:00:31;;;;;;;15.67;10.10;;;4.10;82.60;;;2.92;83.33;98188.94;5065008;28;20442;-73
2022/01/10 10:02:59;;;;;;;15.90;11.50;;;4.40;81.30;;;3.04;83.34;98198.34;5082131;28;20457;-70
2022/01/10 10:05:27;;;;;;;16.70;10.87;;;4.40;81.10;;;2.99;83.53;98198.00;5070673;28;20485;-71
2022/01/10 10:07:54;;;;;;;11.37;10.07;;;4.40;81.50;;;2.98;83.69;98194.47;5047209;28;20442;-71
2022/01/10 10:10:22;;;;;;;17.17;11.13;;;4.50;80.80;;;2.59;85.27;98204.84;5064687;28;20443;-73
2022/01/10 10:12:52;;;;;;;22.30;12.90;;;4.20;81.10;;;2.43;85.75;98213.59;5042227;28;20441;-71
2022/01/10 10:15:23;;;;;;;12.87;10.60;;;4.20;81.30;;;2.37;86.32;98215.06;5056301;28;20527;-70
2022/01/10 10:17:50;;;;;;;14.23;10.57;;;4.00;82.10;;;2.25;86.00;98204.66;5038619;28;20438;-71
2022/01/10 10:20:22;;;;;;;13.87;10.33;;;4.00;81.90;;;2.64;85.40;98223.88;5055689;28;20804;-70
2022/01/10 10:22:51;;;;;;;14.60;10.17;;;4.10;82.00;;;2.79;84.38;98230.28;5037332;28;20469;-71
2022/01/10 10:25:20;;;;;;;13.43;10.43;;;4.10;81.90;;;2.62;85.33;98224.03;5037320;28;20906;-72
2022/01/10 10:27:49;;;;;;;17.60;10.30;;;4.10;82.10;;;2.78;85.36;98233.13;5055131;28;20434;-72
2022/01/10 10:30:25;;;;;;;14.17;10.60;;;4.10;82.20;;;2.62;85.16;98236.53;5037300;28;20827;-71